Stilwell, Kansas
Current Conditions -  °F | °C
As of 5:53 PM on Sunday 25 Jan 2015 (Local Time) from KOJC Reporting Station
Overcast Overcast  
Wind Chill: 30°   Ceiling: 1900
Heat Index: 39°   Visibility: 10mi
Dew Point: 31°   Wind: 18mph
Humidity: 73%   Direction: 360°N
Pressure: 30.04"   Gusts: 29mph
Location:  38.77°N, 94.66°W
Report Text: KOJC 252353Z 36016G25KT 10SM BKN019 OVC026 04/M01 A3004 RMK AO2 SLP175 T00391006 10039 20033 51043
Loading
Personal Weather Stations






























Interactive Weather Map New forecast layout! Learn more

10-Day Weather Forecast

Advertisements
Track Severe Weather on mobile